Terminal Aerodrome Forecast
Issued by NWS

Current Version | Previous Version | Text Only | Print | Product List | Glossary Off
Versions: 1 2 3 4 5 6 7 8 9 10 11 12 13 14 15 16 17 18 19 20 21 22

000
FTUS41 KPBZ 291400 AAA
TAFHLG
TAF AMD
KHLG 291425Z 2914/3012 14008KT P6SM BKN080
     FM291500 17008KT 6SM -FZRASN OVC040
     FM291600 19012G18KT 5SM -SHRASN OVC025
     FM291900 20012G20KT P6SM -SHRA OVC050
     FM300300 25013G23KT 2SM -SHSN OVC008
     FM300900 29013G24KT 5SM -SHSN OVC010=

USA.gov is the U.S. government's official web portal to all federal, state and local government web resources and services.